Time;durP1;ratioP1;P1;durP2;ratioP2;P2;SDS_P1;SDS_P2;PMS_P1;PMS_P2;Temp;Humidity;BMP_temperature;BMP_pressure;BME280_temperature;BME280_humidity;BME280_pressure;Samples;Min_cycle;Max_cycle;Signal;HPM_P1;HPM_P2
2022/06/02 00:01:00;;;;;;;27.35;19.70;;;17.50;72.40;;;13.68;90.40;95618.00;5090753;28;20517;-52
2022/06/02 00:04:10;;;;;;;28.15;19.17;;;17.50;72.70;;;13.70;90.13;95613.19;5092083;28;20028;-49
2022/06/02 00:06:44;;;;;;;29.70;19.92;;;17.50;72.60;;;13.67;90.49;95607.59;5081273;28;20039;-49
2022/06/02 00:09:51;;;;;;;32.33;19.83;;;17.40;72.50;;;13.68;90.51;95612.66;5077528;28;20481;-51
2022/06/02 00:12:35;;;;;;;26.38;17.92;;;17.50;72.70;;;13.65;90.25;95605.19;5095671;28;20039;-52
2022/06/02 00:15:16;;;;;;;27.45;19.08;;;17.40;72.50;;;13.62;90.21;95611.91;5095367;28;20028;-49
2022/06/02 00:18:50;;;;;;;28.13;19.85;;;17.40;72.50;;;13.56;90.40;95605.00;5092185;28;20025;-50
2022/06/02 00:21:38;;;;;;;28.08;19.58;;;17.30;72.60;;;13.51;90.88;95599.72;5075852;28;20114;-51
2022/06/02 00:24:39;;;;;;;31.00;17.98;;;17.30;72.60;;;13.49;90.93;95609.91;5077882;28;20035;-51
2022/06/02 00:27:38;;;;;;;31.25;19.90;;;17.20;72.70;;;13.46;90.70;95607.78;5077108;28;20490;-50
2022/06/02 00:30:50;;;;;;;29.10;19.25;;;17.20;72.90;;;13.45;90.56;95613.44;5095351;28;20081;-53
2022/06/02 00:33:56;;;;;;;28.63;18.98;;;17.20;73.00;;;13.43;90.47;95611.03;5063322;28;20471;-50
2022/06/02 00:36:30;;;;;;;29.73;19.35;;;17.20;73.00;;;13.42;90.65;95615.59;5095036;28;20063;-54
2022/06/02 00:38:59;;;;;;;33.55;20.67;;;17.10;72.80;;;13.38;90.88;95611.88;5077783;28;20455;-52
2022/06/02 00:41:54;;;;;;;26.20;19.02;;;17.10;73.00;;;13.40;90.82;95612.38;5077194;28;20031;-49
2022/06/02 00:44:52;;;;;;;27.88;19.08;;;17.10;73.10;;;13.38;90.93;95613.72;5078659;28;20173;-49
2022/06/02 00:48:06;;;;;;;28.88;19.70;;;17.10;73.10;;;13.36;90.67;95621.25;5094974;28;20588;-53
2022/06/02 00:51:11;;;;;;;34.75;22.67;;;17.10;73.10;;;13.24;91.01;95620.78;5094682;28;20530;-53
2022/06/02 00:57:55;;;;;;;37.78;23.40;;;17.00;73.30;;;13.13;91.29;95623.56;5057915;28;20565;-49
2022/06/02 01:00:41;;;;;;;32.20;23.38;;;17.00;73.40;;;13.10;91.07;95620.63;5094730;28;20440;-53
2022/06/02 01:03:18;;;;;;;37.83;25.67;;;16.90;73.30;;;13.01;91.14;95623.13;5077321;28;20039;-50
2022/06/02 01:06:28;;;;;;;38.25;26.48;;;16.90;73.60;;;12.96;91.36;95631.94;5093540;28;20032;-51
2022/06/02 01:09:08;;;;;;;41.63;26.52;;;16.90;73.70;;;12.95;91.05;95626.91;5094698;28;20110;-51
2022/06/02 01:12:11;;;;;;;38.50;26.38;;;16.80;73.50;;;12.93;90.83;95627.16;5094458;28;20103;-51
2022/06/02 01:14:57;;;;;;;36.87;24.73;;;16.80;73.60;;;12.90;90.83;95622.38;5093880;28;20024;-53
2022/06/02 01:18:10;;;;;;;41.03;27.27;;;16.70;73.50;;;12.83;90.96;95632.59;5093654;28;20274;-49
2022/06/02 01:21:00;;;;;;;43.10;27.20;;;16.70;73.60;;;12.84;90.93;95638.72;5072599;28;20031;-52
2022/06/02 01:23:57;;;;;;;47.97;28.88;;;16.60;73.50;;;12.79;90.99;95644.13;5076140;28;20046;-49
2022/06/02 01:26:51;;;;;;;42.17;29.33;;;16.60;73.70;;;12.78;91.01;95647.84;5063786;28;20081;-51
2022/06/02 01:30:18;;;;;;;42.30;27.05;;;16.60;73.80;;;12.74;91.09;95644.94;5078604;28;20360;-50
2022/06/02 01:33:51;;;;;;;40.13;27.05;;;16.50;73.80;;;12.71;91.10;95651.63;5094145;28;20536;-50
2022/06/02 01:36:54;;;;;;;40.15;25.60;;;16.50;73.80;;;12.64;91.29;95643.13;5093693;28;20505;-51
2022/06/02 01:39:45;;;;;;;41.00;26.13;;;16.40;73.80;;;12.62;91.54;95645.25;5094054;28;20058;-53
2022/06/02 01:42:54;;;;;;;38.25;25.45;;;16.40;73.80;;;12.58;91.83;95643.44;5094336;28;20149;-51
2022/06/02 01:46:02;;;;;;;37.45;24.25;;;16.40;73.90;;;12.56;91.91;95649.03;5075698;28;20028;-49
2022/06/02 01:49:01;;;;;;;39.05;25.27;;;16.40;74.00;;;12.54;91.98;95648.53;5064814;28;20029;-49
2022/06/02 01:52:10;;;;;;;44.17;26.58;;;16.40;74.10;;;12.58;91.77;95651.44;5093781;28;20165;-50
2022/06/02 01:55:21;;;;;;;37.15;24.30;;;16.40;74.20;;;12.59;91.87;95653.03;5093586;28;20036;-51
2022/06/02 01:58:50;;;;;;;40.88;26.85;;;16.30;74.20;;;12.59;91.84;95645.81;5093425;28;20044;-50
2022/06/02 02:01:55;;;;;;;34.95;24.20;;;16.40;74.30;;;12.57;91.96;95647.19;5082418;28;20441;-50
2022/06/02 02:05:17;;;;;;;36.45;25.67;;;16.40;74.30;;;12.57;91.95;95650.66;5092301;28;20094;-51
2022/06/02 02:08:42;;;;;;;36.83;24.95;;;16.40;74.40;;;12.62;91.81;95650.59;5065999;28;20576;-49
2022/06/02 02:11:40;;;;;;;38.50;25.30;;;16.40;74.40;;;12.62;91.57;95644.47;5064596;28;20043;-49
2022/06/02 02:14:50;;;;;;;40.15;27.25;;;16.30;74.30;;;12.62;91.63;95639.91;5093259;28;20036;-50
2022/06/02 02:17:56;;;;;;;39.78;27.60;;;16.40;74.40;;;12.63;91.73;95643.38;5090400;28;20393;-53
2022/06/02 02:21:16;;;;;;;36.45;25.58;;;16.40;74.40;;;12.62;91.54;95637.25;5088292;28;20033;-51
2022/06/02 02:23:58;;;;;;;36.10;23.98;;;16.40;74.40;;;12.63;91.57;95638.03;5079659;28;20031;-49
2022/06/02 02:26:33;;;;;;;34.75;23.83;;;16.40;74.40;;;12.63;91.55;95648.72;5090642;28;20131;-49
2022/06/02 02:29:56;;;;;;;35.13;24.35;;;16.40;74.30;;;12.64;91.44;95642.31;5058245;28;20034;-49
2022/06/02 02:32:46;;;;;;;33.85;25.08;;;16.40;74.40;;;12.64;91.35;95634.31;5092190;28;20040;-53
2022/06/02 02:35:14;;;;;;;39.85;26.48;;;16.40;74.40;;;12.62;91.59;95636.44;5073868;28;20390;-52
2022/06/02 02:38:10;;;;;;;36.03;24.67;;;16.40;74.40;;;12.64;91.69;95634.31;5073333;28;20394;-50
2022/06/02 02:40:51;;;;;;;30.30;22.98;;;16.40;74.50;;;12.61;91.59;95621.50;5075994;28;20081;-54
2022/06/02 02:43:38;;;;;;;36.83;24.13;;;16.40;74.50;;;12.65;91.35;95630.56;5092168;28;20032;-50
2022/06/02 02:46:19;;;;;;;31.08;22.95;;;16.40;74.50;;;12.67;91.33;95639.09;5074240;28;20512;-50
2022/06/02 02:49:18;;;;;;;32.47;23.05;;;16.50;74.60;;;12.67;91.12;95633.75;5092086;28;20051;-51
2022/06/02 02:52:21;;;;;;;29.65;22.05;;;16.50;74.60;;;12.65;91.10;95630.56;5074711;28;20035;-50
2022/06/02 02:55:15;;;;;;;31.33;22.65;;;16.50;74.50;;;12.66;90.85;95635.63;5077139;28;20539;-49
2022/06/02 02:58:17;;;;;;;36.47;24.83;;;16.40;74.30;;;12.66;90.96;95637.47;5057143;28;20084;-50
2022/06/02 03:01:48;;;;;;;33.85;23.45;;;16.40;74.40;;;12.67;90.80;95631.88;5088520;28;20478;-51
2022/06/02 03:05:00;;;;;;;31.50;22.52;;;16.40;74.40;;;12.67;90.75;95634.56;5059565;28;20044;-49
2022/06/02 03:07:31;;;;;;;34.72;22.23;;;16.50;74.40;;;12.67;90.86;95634.56;5091670;28;20486;-50
2022/06/02 03:10:06;;;;;;;31.10;22.88;;;16.40;74.30;;;12.70;90.51;95634.00;5074250;28;20043;-49
2022/06/02 03:13:36;;;;;;;33.67;23.55;;;16.40;74.30;;;12.70;90.75;95634.00;5092375;28;20039;-50
2022/06/02 03:16:10;;;;;;;35.25;25.05;;;16.50;74.40;;;12.68;91.27;95628.13;5040862;28;20102;-51
2022/06/02 03:19:22;;;;;;;40.03;25.88;;;16.50;74.30;;;12.69;91.07;95637.75;5068699;28;20118;-50
2022/06/02 03:23:10;;;;;;;38.25;26.15;;;16.50;74.40;;;12.69;91.13;95632.41;5092315;28;20418;-53
2022/06/02 03:26:02;;;;;;;43.65;28.88;;;16.50;74.30;;;12.68;91.56;95630.78;5056908;28;20127;-48
2022/06/02 03:29:05;;;;;;;42.55;28.02;;;16.50;74.40;;;12.71;91.16;95632.91;5076065;28;20036;-50
2022/06/02 03:31:55;;;;;;;45.55;27.77;;;16.50;74.40;;;12.72;91.17;95620.34;5092201;28;20066;-49
2022/06/02 03:35:00;;;;;;;45.67;29.30;;;16.50;74.40;;;12.67;91.21;95607.03;5075181;28;20036;-50
2022/06/02 03:37:50;;;;;;;49.08;30.25;;;16.40;74.30;;;12.64;91.54;95618.28;5060997;28;20029;-51
2022/06/02 03:41:12;;;;;;;50.33;30.35;;;16.40;74.40;;;12.65;91.70;95619.88;5094559;28;20034;-49
2022/06/02 03:44:13;;;;;;;55.65;31.85;;;16.40;74.50;;;12.64;92.11;95624.41;5096136;28;20032;-49
2022/06/02 03:46:51;;;;;;;49.47;30.92;;;16.40;74.70;;;12.66;92.10;95624.13;5096052;28;20030;-51
2022/06/02 03:50:01;;;;;;;47.47;30.02;;;16.50;74.80;;;12.72;91.88;95633.72;5077990;28;20039;-53
2022/06/02 03:53:17;;;;;;;46.90;28.60;;;16.40;74.70;;;12.77;91.47;95624.88;5081393;28;20024;-51
2022/06/02 03:56:32;;;;;;;45.83;29.30;;;16.50;74.70;;;12.77;91.51;95628.34;5095732;28;20032;-55
2022/06/02 03:59:54;;;;;;;54.08;32.40;;;16.60;74.50;;;12.74;92.10;95626.22;5086543;28;20032;-50
2022/06/02 04:02:35;;;;;;;45.65;30.35;;;16.60;74.60;;;12.72;92.50;95631.84;5095768;28;20058;-50
2022/06/02 04:05:23;;;;;;;46.13;30.63;;;16.60;74.70;;;12.75;92.46;95625.13;5077574;28;20028;-53
2022/06/02 04:08:33;;;;;;;48.97;31.33;;;16.60;74.80;;;12.79;92.32;95641.44;5089103;28;20497;-53
2022/06/02 04:15:04;;;;;;;41.95;27.80;;;16.70;74.80;;;12.84;92.00;95634.16;5095533;28;20066;-49
2022/06/02 04:18:01;;;;;;;39.97;26.48;;;16.80;74.70;;;12.86;91.77;95632.03;5080836;28;20024;-49
2022/06/02 04:20:56;;;;;;;45.72;29.10;;;16.80;74.60;;;12.89;91.48;95636.03;5095584;28;20039;-50
2022/06/02 04:24:20;;;;;;;48.05;28.70;;;16.80;74.50;;;12.93;91.57;95637.06;5095501;28;20024;-52
2022/06/02 04:27:37;;;;;;;45.63;27.45;;;16.80;74.50;;;12.96;91.69;95633.84;5077267;28;20063;-51
2022/06/02 04:30:10;;;;;;;45.15;27.27;;;16.90;74.40;;;13.04;91.50;95649.28;5079971;28;20024;-53
2022/06/02 04:33:33;;;;;;;44.55;28.65;;;17.00;74.30;;;13.12;91.24;95656.72;5060751;28;20024;-52
2022/06/02 04:36:05;;;;;;;41.88;27.08;;;17.10;74.30;;;13.18;91.15;95652.13;5078045;28;20044;-52
2022/06/02 04:39:34;;;;;;;40.90;27.10;;;17.10;74.00;;;13.19;90.96;95667.91;5095216;28;20027;-53
2022/06/02 04:42:43;;;;;;;42.00;26.88;;;17.20;74.00;;;13.25;90.98;95665.22;5018178;28;20033;-49
2022/06/02 04:45:42;;;;;;;41.28;26.75;;;17.20;73.80;;;13.30;90.80;95667.84;5032611;28;20048;-54
2022/06/02 04:48:33;;;;;;;40.83;26.55;;;17.30;73.70;;;13.34;90.64;95669.69;5094567;28;20138;-49
2022/06/02 04:51:22;;;;;;;39.00;26.50;;;17.40;73.60;;;13.39;90.81;95671.53;5093750;28;20070;-53
2022/06/02 04:54:10;;;;;;;35.95;25.70;;;17.50;73.70;;;13.48;90.60;95653.81;5093566;28;20035;-52
2022/06/02 04:56:56;;;;;;;37.15;23.48;;;17.60;73.70;;;13.54;90.43;95654.56;5094482;28;20024;-50
2022/06/02 04:59:51;;;;;;;31.45;22.42;;;17.60;73.60;;;13.56;89.89;95653.19;5080052;28;20315;-52
2022/06/02 05:02:33;;;;;;;29.30;21.88;;;17.70;73.40;;;13.56;89.66;95655.06;5094403;28;20016;-49
2022/06/02 05:05:39;;;;;;;29.90;21.65;;;17.70;73.00;;;13.64;89.83;95662.50;5077693;28;20112;-49
2022/06/02 05:08:32;;;;;;;31.77;21.73;;;17.90;72.90;;;13.83;89.30;95663.38;5032890;28;20074;-49
2022/06/02 05:12:01;;;;;;;31.90;22.00;;;18.10;72.70;;;14.01;89.13;95667.22;5094390;28;20044;-52
2022/06/02 05:14:51;;;;;;;27.55;20.50;;;18.30;72.50;;;14.06;88.28;95672.50;5094567;28;20043;-49
2022/06/02 05:17:54;;;;;;;24.80;20.17;;;18.40;72.20;;;14.22;87.89;95661.63;5094289;28;20077;-54
2022/06/02 05:20:44;;;;;;;25.83;20.17;;;18.50;72.00;;;14.19;87.53;95656.84;5094364;28;20028;-50
2022/06/02 05:23:53;;;;;;;23.75;18.63;;;18.60;71.80;;;14.24;87.23;95657.59;5076087;28;20081;-51
2022/06/02 05:26:41;;;;;;;24.00;19.13;;;18.60;71.60;;;14.37;86.93;95661.47;5094139;28;20020;-54
2022/06/02 05:29:39;;;;;;;22.05;18.20;;;18.70;71.40;;;14.62;85.72;95646.97;5094354;28;20027;-49
2022/06/02 05:32:42;;;;;;;23.42;17.50;;;18.90;71.10;;;14.66;84.98;95649.88;5075988;28;20363;-50
2022/06/02 05:35:27;;;;;;;20.30;16.38;;;19.10;70.60;;;14.86;84.78;95667.59;5072460;28;20040;-54
2022/06/02 05:38:17;;;;;;;19.23;15.48;;;19.20;70.20;;;15.07;83.72;95668.06;5093671;28;20035;-54
2022/06/02 05:41:05;;;;;;;17.60;15.02;;;19.30;69.90;;;15.06;82.69;95671.84;5075846;28;20097;-53
2022/06/02 05:44:08;;;;;;;18.80;14.95;;;19.60;69.30;;;14.98;82.75;95668.75;5075965;28;20039;-55
2022/06/02 05:46:46;;;;;;;;;;;19.80;68.50;;;14.92;82.85;95669.13;5094282;28;20027;-51
2022/06/02 05:49:37;;;;;;;17.55;15.40;;;19.90;68.10;;;14.89;83.03;95680.41;5093972;28;19908;-50
2022/06/02 05:52:47;;;;;;;19.40;15.73;;;19.90;67.50;;;14.76;83.27;95671.19;5077414;28;20024;-51
2022/06/02 05:56:14;;;;;;;19.73;16.27;;;19.90;67.30;;;14.71;83.97;95687.34;5061411;28;20433;-49
2022/06/02 05:58:59;;;;;;;17.40;15.38;;;20.00;67.00;;;14.71;84.16;95706.13;5064475;28;20114;-51
2022/06/02 06:01:39;;;;;;;21.48;16.77;;;19.90;66.70;;;14.56;84.89;95691.00;5075475;28;20028;-50
2022/06/02 06:04:55;;;;;;;18.60;15.57;;;19.80;66.90;;;14.69;84.54;95690.31;5093592;28;20099;-51
2022/06/02 06:07:29;;;;;;;18.30;14.52;;;19.80;67.10;;;14.99;84.05;95697.16;5081096;28;20553;-49
2022/06/02 06:10:25;;;;;;;17.27;15.25;;;20.00;67.00;;;14.98;83.78;95702.81;5093425;28;20039;-51
2022/06/02 06:13:31;;;;;;;15.45;13.85;;;20.40;66.30;;;15.36;82.95;95711.66;5092340;28;20058;-53
2022/06/02 06:16:04;;;;;;;15.48;13.93;;;20.60;66.20;;;15.35;81.49;95710.03;5092051;28;20445;-51
2022/06/02 06:19:06;;;;;;;17.83;13.90;;;20.70;65.80;;;15.35;81.75;95720.00;5093665;28;20028;-52
2022/06/02 06:22:18;;;;;;;15.50;12.57;;;20.60;65.50;;;15.56;81.96;95734.69;5092026;28;20542;-49
2022/06/02 06:25:18;;;;;;;16.77;13.00;;;20.60;65.80;;;15.76;81.13;95727.44;5092972;28;20127;-53
2022/06/02 06:28:18;;;;;;;16.52;13.88;;;20.70;65.80;;;16.13;80.10;95731.91;5092970;28;20482;-51
2022/06/02 06:31:05;;;;;;;17.70;12.75;;;21.00;65.60;;;16.16;79.00;95734.00;5072840;28;20066;-49
2022/06/02 06:33:44;;;;;;;15.00;12.70;;;21.30;64.70;;;16.22;78.22;95738.19;5093093;28;20490;-50
2022/06/02 06:36:30;;;;;;;17.85;13.98;;;21.60;64.00;;;16.16;78.63;95732.13;5092637;28;20040;-50
2022/06/02 06:39:14;;;;;;;18.88;13.52;;;21.80;62.90;;;16.28;78.02;95730.84;5092931;28;20027;-50
2022/06/02 06:42:21;;;;;;;15.73;14.05;;;21.80;62.80;;;16.23;77.77;95729.03;5093005;28;20024;-54
2022/06/02 06:44:53;;;;;;;14.77;13.27;;;21.60;62.40;;;16.33;78.27;95723.50;5092856;28;20023;-51
2022/06/02 06:47:30;;;;;;;16.63;13.00;;;21.70;62.40;;;16.61;76.85;95723.50;5074570;28;20032;-50
2022/06/02 06:50:18;;;;;;;16.00;12.18;;;22.00;61.90;;;16.99;76.14;95721.41;5091572;28;20043;-52
2022/06/02 06:53:14;;;;;;;15.43;12.70;;;22.50;61.10;;;16.89;75.88;95726.97;5092536;28;20111;-50
2022/06/02 06:56:08;;;;;;;14.10;12.55;;;22.80;60.00;;;16.97;74.84;95725.50;5092511;28;20485;-51
2022/06/02 06:59:04;;;;;;;14.00;12.60;;;22.80;59.40;;;17.15;74.53;95729.94;5088448;28;20039;-52
2022/06/02 07:01:56;;;;;;;13.35;11.85;;;23.00;59.20;;;17.27;74.03;95734.81;5085715;28;20032;-51
2022/06/02 07:04:40;;;;;;;15.57;12.43;;;23.00;59.10;;;17.33;73.97;95734.41;5092630;28;20016;-50
2022/06/02 07:07:26;;;;;;;14.32;12.80;;;22.90;59.00;;;16.98;73.73;95725.19;5066526;28;20081;-50
2022/06/02 07:10:36;;;;;;;14.82;13.00;;;22.80;58.60;;;16.70;76.33;95734.34;5091249;28;20502;-50
2022/06/02 07:13:46;;;;;;;15.77;13.20;;;22.60;58.80;;;16.78;76.33;95734.47;5092000;28;20059;-51
2022/06/02 07:16:48;;;;;;;14.60;13.05;;;22.70;58.80;;;17.00;74.84;95725.69;5090977;28;20519;-50
2022/06/02 07:19:49;;;;;;;14.40;13.00;;;22.80;58.50;;;17.24;74.60;95722.75;5091549;28;20382;-51
2022/06/02 07:22:53;;;;;;;15.77;12.27;;;22.80;58.50;;;17.58;73.50;95718.75;5091021;28;20035;-52
2022/06/02 07:25:57;;;;;;;13.38;11.73;;;23.10;58.30;;;18.14;71.89;95722.78;5085452;28;20048;-50
2022/06/02 07:28:50;;;;;;;14.25;12.13;;;23.80;57.40;;;18.67;70.88;95732.69;5092080;28;20077;-50
2022/06/02 07:32:23;;;;;;;11.80;10.52;;;24.40;56.60;;;18.89;69.17;95729.13;5091017;28;20028;-53
2022/06/02 07:35:41;;;;;;;13.27;11.48;;;24.80;56.00;;;19.12;67.39;95735.22;5044531;28;20491;-49
2022/06/02 07:38:55;;;;;;;12.90;10.82;;;25.00;55.30;;;19.56;67.40;95740.69;5091069;28;20036;-51
2022/06/02 07:42:03;;;;;;;13.02;10.70;;;25.40;54.60;;;19.61;66.07;95735.88;5091168;28;20085;-50
2022/06/02 07:45:03;;;;;;;12.65;10.68;;;25.50;54.10;;;19.89;65.67;95741.00;5091313;28;20111;-54
2022/06/02 07:48:06;;;;;;;12.15;10.95;;;25.90;53.40;;;20.02;65.02;95741.91;5090684;28;20403;-52
2022/06/02 07:50:55;;;;;;;14.00;10.50;;;26.10;52.90;;;20.11;64.11;95743.50;5092410;28;20055;-54
2022/06/02 07:54:13;;;;;;;10.57;9.40;;;26.20;52.40;;;20.20;63.21;95745.41;5090749;28;20040;-50
2022/06/02 07:57:09;;;;;;;13.55;10.30;;;26.30;52.30;;;20.36;62.60;95741.03;5091997;28;20024;-49
2022/06/02 07:59:54;;;;;;;13.68;10.63;;;26.50;51.70;;;20.62;63.96;95738.31;5079510;28;20051;-51
2022/06/02 08:03:16;;;;;;;13.25;9.93;;;27.00;51.20;;;20.96;61.64;95740.03;5078257;28;20123;-52
2022/06/02 08:06:28;;;;;;;11.77;10.38;;;27.50;50.30;;;20.98;61.32;95739.72;5087282;28;20028;-54
2022/06/02 08:09:53;;;;;;;15.33;10.53;;;27.80;49.50;;;21.71;60.10;95740.16;5063719;28;20028;-54
2022/06/02 08:12:26;;;;;;;11.68;10.10;;;28.20;49.00;;;22.23;59.49;95744.38;5091832;28;20032;-54
2022/06/02 08:15:35;;;;;;;12.75;9.90;;;29.10;48.30;;;22.50;57.98;95737.53;5073655;28;20036;-54
2022/06/02 08:18:36;;;;;;;11.05;9.50;;;29.30;47.70;;;22.13;57.63;95723.84;5089324;28;20554;-52
2022/06/02 08:21:41;;;;;;;13.27;10.27;;;29.10;46.90;;;21.83;57.19;95720.47;5074786;28;20395;-51
2022/06/02 08:24:54;;;;;;;10.52;9.52;;;28.80;46.60;;;21.39;59.26;95722.75;5066820;28;20122;-51
2022/06/02 08:27:41;;;;;;;13.57;9.65;;;28.50;46.40;;;21.25;59.94;95728.41;5078856;28;20028;-53
2022/06/02 08:30:40;;;;;;;13.85;10.43;;;28.20;46.40;;;21.03;61.20;95732.19;5077843;28;20059;-53
2022/06/02 08:33:42;;;;;;;11.82;10.52;;;27.90;46.50;;;21.17;60.68;95742.00;5077944;28;20126;-49
2022/06/02 08:37:09;;;;;;;10.82;9.75;;;28.10;46.20;;;21.37;59.25;95740.44;5094116;28;20103;-53
2022/06/02 08:40:31;;;;;;;12.52;9.20;;;28.60;46.00;;;21.82;58.56;95734.38;5064475;28;20036;-50
2022/06/02 08:43:35;;;;;;;12.15;10.35;;;29.00;45.30;;;21.97;58.61;95739.19;5094225;28;20028;-50
2022/06/02 08:46:31;;;;;;;10.65;9.50;;;29.10;45.20;;;21.99;57.37;95741.53;5067514;28;20051;-50
2022/06/02 08:49:28;;;;;;;9.75;8.75;;;29.10;45.00;;;22.22;57.38;95753.63;5093689;28;20032;-53
2022/06/02 08:53:04;;;;;;;11.00;9.50;;;29.00;45.20;;;22.40;57.28;95759.66;5093943;28;20085;-50
2022/06/02 08:56:06;;;;;;;12.38;9.48;;;29.10;45.20;;;22.22;57.00;95741.97;5094012;28;20036;-52
2022/06/02 08:59:11;;;;;;;12.30;9.80;;;29.20;44.60;;;22.28;57.41;95737.91;5093094;28;20119;-50
2022/06/02 09:02:15;;;;;;;12.02;9.23;;;29.20;44.60;;;22.36;56.72;95739.75;5090169;28;20036;-48
2022/06/02 09:05:30;;;;;;;12.52;9.80;;;29.50;44.30;;;22.65;56.59;95744.19;5081670;28;20154;-51
2022/06/02 09:08:20;;;;;;;10.77;9.13;;;29.90;43.30;;;23.15;55.38;95748.53;5081419;28;20058;-51
2022/06/02 09:11:20;;;;;;;9.70;8.82;;;30.40;43.00;;;23.63;53.70;95760.47;5094458;28;20059;-49
2022/06/02 09:14:20;;;;;;;10.40;8.55;;;30.50;42.70;;;23.82;52.83;95753.63;5094437;28;20032;-48
2022/06/02 09:17:06;;;;;;;9.38;8.48;;;30.80;42.20;;;23.67;53.23;95750.50;5085177;28;20055;-48
2022/06/02 09:20:07;;;;;;;10.43;8.85;;;30.60;41.90;;;23.21;54.21;95757.25;5079866;28;20483;-57
2022/06/02 09:23:15;;;;;;;13.80;9.50;;;30.30;41.90;;;22.76;54.69;95750.78;5056633;28;20063;-50
2022/06/02 09:26:28;;;;;;;10.15;9.15;;;29.90;42.00;;;22.89;54.21;95751.59;5080005;28;20025;-50
2022/06/02 09:29:15;;;;;;;9.07;8.00;;;29.70;42.10;;;23.30;54.37;95750.56;5058370;28;20032;-48
2022/06/02 09:32:30;;;;;;;8.73;7.82;;;29.90;42.20;;;23.92;53.11;95751.22;5067139;28;20363;-48
2022/06/02 09:35:39;;;;;;;12.25;8.80;;;30.20;42.30;;;24.21;50.62;95757.44;5072811;28;20028;-48
2022/06/02 09:38:54;;;;;;;9.35;8.25;;;30.60;41.50;;;24.35;51.19;95746.13;5035173;28;20036;-48
2022/06/02 09:41:38;;;;;;;9.40;8.50;;;30.90;41.30;;;24.06;51.03;95748.09;5078192;28;20024;-49
2022/06/02 09:44:24;;;;;;;10.23;8.38;;;30.60;41.10;;;24.00;51.48;95763.91;5093106;28;20437;-48
2022/06/02 09:47:39;;;;;;;9.10;8.30;;;30.40;41.10;;;23.92;51.92;95764.03;5093644;28;20066;-48
2022/06/02 09:50:33;;;;;;;9.73;7.53;;;30.30;41.50;;;23.53;52.82;95771.81;5032989;28;20032;-48
2022/06/02 09:53:09;;;;;;;9.20;8.25;;;30.10;41.60;;;23.62;52.54;95767.03;5081698;28;20063;-56
2022/06/02 09:56:19;;;;;;;8.80;7.95;;;29.90;41.70;;;23.71;52.24;95761.50;5077118;28;20119;-49
2022/06/02 09:59:23;;;;;;;8.65;7.85;;;29.70;41.80;;;23.49;52.10;95765.50;5082235;28;20032;-48
2022/06/02 10:02:59;;;;;;;8.65;7.75;;;29.80;41.70;;;23.73;51.71;95762.75;5091920;28;20031;-55
2022/06/02 10:06:27;;;;;;;9.23;8.32;;;29.90;41.70;;;23.96;50.90;95771.16;4951626;28;20111;-49
2022/06/02 10:09:39;;;;;;;9.85;7.78;;;30.20;41.50;;;23.73;51.80;95767.41;4992867;28;20133;-48
2022/06/02 10:13:00;;;;;;;8.75;7.95;;;30.00;41.60;;;24.07;51.22;95755.16;5004553;28;20527;-48
2022/06/02 10:15:40;;;;;;;9.15;7.75;;;30.30;41.20;;;24.54;51.15;95761.81;4991471;28;20489;-50
2022/06/02 10:18:45;;;;;;;7.75;6.95;;;30.60;41.30;;;25.08;50.18;95764.75;4995083;28;20046;-57
2022/06/02 10:21:50;;;;;;;8.07;7.13;;;30.90;41.30;;;25.70;47.00;95765.00;4992247;28;20033;-50
2022/06/02 10:24:59;;;;;;;8.43;7.53;;;31.60;40.70;;;26.16;45.67;95761.63;5011032;28;20092;-48
2022/06/02 10:27:37;;;;;;;8.32;7.43;;;32.20;39.70;;;26.76;45.21;95754.59;5010578;28;20068;-53
2022/06/02 10:30:41;;;;;;;9.05;8.05;;;32.90;38.90;;;27.00;44.39;95750.66;5002274;28;20041;-50
2022/06/02 10:33:46;;;;;;;8.23;7.38;;;33.40;38.10;;;27.09;43.89;95757.84;4975865;28;20042;-48
2022/06/02 10:36:45;;;;;;;9.07;7.97;;;33.70;37.20;;;27.14;43.34;95754.78;5053415;28;20510;-53
2022/06/02 10:39:28;;;;;;;8.55;7.00;;;33.80;36.60;;;27.67;42.86;95757.50;5071195;28;20040;-49
2022/06/02 10:42:40;;;;;;;7.88;7.18;;;34.60;36.20;;;28.07;42.08;95750.63;5088641;28;20020;-51
2022/06/02 10:45:58;;;;;;;8.77;8.05;;;35.30;35.30;;;28.08;42.35;95749.44;5083836;28;20494;-50
2022/06/02 10:48:47;;;;;;;6.90;6.30;;;36.00;34.80;;;28.85;41.99;95747.13;5082350;28;20032;-49
2022/06/02 10:51:42;;;;;;;8.63;6.97;;;36.40;33.80;;;29.21;39.04;95740.00;5090436;28;20526;-48
2022/06/02 10:54:56;;;;;;;7.13;6.22;;;36.70;32.90;;;29.58;38.48;95733.53;5089555;28;20044;-51
2022/06/02 10:58:02;;;;;;;8.45;7.75;;;37.10;32.50;;;28.05;40.79;95740.06;5079608;28;20039;-53
2022/06/02 11:01:24;;;;;;;10.07;7.35;;;37.40;31.40;;;28.20;41.94;95729.25;5089465;28;20640;-50
2022/06/02 11:04:13;;;;;;;7.97;7.28;;;37.30;31.10;;;28.35;40.94;95723.53;5084633;28;20020;-51
2022/06/02 11:07:19;;;;;;;8.35;7.30;;;37.20;30.80;;;28.22;40.03;95732.41;5087571;28;20068;-49
2022/06/02 11:10:38;;;;;;;7.65;6.28;;;37.20;30.20;;;28.19;40.69;95730.41;5088773;28;20036;-50
2022/06/02 11:13:33;;;;;;;7.38;6.65;;;36.50;30.40;;;28.22;40.31;95735.91;5026026;28;20029;-49
2022/06/02 11:16:31;;;;;;;9.65;6.55;;;35.90;31.00;;;28.10;41.40;95728.75;5026216;28;20045;-49
2022/06/02 11:19:36;;;;;;;7.57;6.78;;;35.70;31.30;;;27.90;41.70;95732.84;5023960;28;20045;-53
2022/06/02 11:23:05;;;;;;;8.45;7.65;;;35.70;31.40;;;27.81;42.14;95724.91;5026874;28;20053;-49
2022/06/02 11:26:04;;;;;;;7.97;6.60;;;35.60;31.60;;;27.69;42.48;95723.16;5029518;28;20037;-52
2022/06/02 11:29:00;;;;;;;9.60;6.05;;;35.20;31.90;;;28.05;41.69;95725.56;5014549;28;20084;-50
2022/06/02 11:32:15;;;;;;;6.60;5.82;;;35.20;32.00;;;27.90;41.32;95714.44;5029956;28;20073;-49
2022/06/02 11:35:20;;;;;;;6.85;6.13;;;35.00;32.10;;;27.56;41.63;95715.56;5029813;28;20455;-51
2022/06/02 11:38:23;;;;;;;5.80;5.30;;;34.50;32.60;;;27.20;41.99;95723.25;5013389;28;20075;-48
2022/06/02 11:41:45;;;;;;;6.82;5.63;;;34.20;32.80;;;27.28;40.92;95721.44;5013220;28;20049;-48
2022/06/02 11:44:20;;;;;;;6.50;5.30;;;34.00;32.90;;;27.35;40.70;95713.31;5070899;28;20059;-49
2022/06/02 11:47:07;;;;;;;7.40;5.38;;;33.90;33.00;;;27.39;41.50;95708.69;5090691;28;20028;-52
2022/06/02 11:50:28;;;;;;;6.00;5.40;;;33.90;33.10;;;27.54;41.08;95701.47;5090824;28;20024;-49
2022/06/02 11:53:15;;;;;;;7.22;6.47;;;34.00;33.20;;;28.10;39.69;95700.59;5090882;28;20115;-49
2022/06/02 11:56:09;;;;;;;6.53;5.78;;;34.80;32.20;;;28.36;39.45;95697.75;5091992;28;20028;-50
2022/06/02 11:59:31;;;;;;;6.20;5.70;;;35.10;31.80;;;27.83;40.63;95703.44;5092284;28;20047;-49
2022/06/02 12:02:20;;;;;;;6.38;5.78;;;35.10;31.50;;;27.71;40.17;95700.91;5084728;28;20368;-51
2022/06/02 12:05:20;;;;;;;6.07;5.47;;;35.10;31.40;;;27.76;39.90;95695.09;5095770;28;20035;-49
2022/06/02 12:08:25;;;;;;;5.25;4.75;;;35.20;31.10;;;27.73;41.30;95697.78;5095590;28;20487;-49
2022/06/02 12:11:28;;;;;;;6.40;4.80;;;35.30;31.10;;;28.02;40.02;95688.78;5095727;28;20032;-48
2022/06/02 12:14:40;;;;;;;6.63;5.43;;;35.50;30.80;;;28.19;41.07;95690.13;5077354;28;20499;-52
2022/06/02 12:17:53;;;;;;;6.22;5.63;;;35.50;31.10;;;28.17;40.17;95692.44;5078450;28;20036;-50
2022/06/02 12:20:37;;;;;;;6.25;5.60;;;35.50;31.80;;;28.33;40.39;95684.81;5079214;28;20136;-53
2022/06/02 12:23:36;;;;;;;6.20;5.70;;;35.30;31.30;;;28.01;39.43;95686.41;5095455;28;20083;-49
2022/06/02 12:26:23;;;;;;;5.35;4.95;;;35.10;31.00;;;28.10;39.53;95687.69;5077233;28;20032;-52
2022/06/02 12:29:13;;;;;;;6.53;5.40;;;34.90;31.20;;;27.95;40.40;95685.16;5095340;28;20060;-49
2022/06/02 12:32:16;;;;;;;6.97;5.85;;;34.80;31.20;;;28.32;40.54;95688.69;5078290;28;20490;-49
2022/06/02 12:35:22;;;;;;;10.00;5.63;;;34.90;31.50;;;28.51;39.32;95686.94;5078820;28;20510;-51